Terminal Aerodrome Forecast
Issued by NWS Newport/Morehead City, NC

Home | Current Version | Previous Version | Text Only | Print | Product List | Glossary On
Versions: 1 2 3 4 5 6 7 8 9 10 11 12 13 14 15 16 17 18 19 20 21 22 23 24 25 26 27 28 29 30 31 32
000
FTUS42 KMHX 200609 CCH
TAFEWN
TAF COR
KEWN 200609Z 2006/2106 VRB03KT 1/2SM FG OVC003
      TEMPO 2008/2012 1SM BR BKN002
     FM201500 VRB03KT P6SM BKN015
     FM201800 08005KT P6SM SCT025 BKN070=

USA.gov is the U.S. government's official web portal to all federal, state and local government web resources and services.